sensor_id;sensor_type;location;lat;lon;timestamp;P1;durP1;ratioP1;P2;durP2;ratioP2
2522;SDS011;1272;53.332;9.860;2022-11-20T00:00:08;12.13;;;9.30;;
2522;SDS011;1272;53.332;9.860;2022-11-20T00:02:34;12.37;;;10.07;;
2522;SDS011;1272;53.332;9.860;2022-11-20T00:05:00;11.43;;;10.23;;
2522;SDS011;1272;53.332;9.860;2022-11-20T00:07:26;12.70;;;10.67;;
2522;SDS011;1272;53.332;9.860;2022-11-20T00:09:51;12.17;;;10.87;;
2522;SDS011;1272;53.332;9.860;2022-11-20T00:12:17;13.57;;;10.20;;
2522;SDS011;1272;53.332;9.860;2022-11-20T00:14:43;11.17;;;10.00;;
2522;SDS011;1272;53.332;9.860;2022-11-20T00:17:08;13.33;;;10.33;;
2522;SDS011;1272;53.332;9.860;2022-11-20T00:19:34;14.43;;;11.10;;
2522;SDS011;1272;53.332;9.860;2022-11-20T00:22:00;12.13;;;9.40;;
2522;SDS011;1272;53.332;9.860;2022-11-20T00:24:25;13.30;;;10.20;;
2522;SDS011;1272;53.332;9.860;2022-11-20T00:26:51;15.30;;;9.50;;
2522;SDS011;1272;53.332;9.860;2022-11-20T00:29:16;12.13;;;9.07;;
2522;SDS011;1272;53.332;9.860;2022-11-20T00:31:42;10.87;;;8.50;;
2522;SDS011;1272;53.332;9.860;2022-11-20T00:34:09;11.13;;;9.07;;
2522;SDS011;1272;53.332;9.860;2022-11-20T00:36:35;12.87;;;10.57;;
2522;SDS011;1272;53.332;9.860;2022-11-20T00:39:00;12.33;;;8.97;;
2522;SDS011;1272;53.332;9.860;2022-11-20T00:41:27;12.33;;;10.17;;
2522;SDS011;1272;53.332;9.860;2022-11-20T00:43:53;10.80;;;9.47;;
2522;SDS011;1272;53.332;9.860;2022-11-20T00:46:21;12.40;;;9.50;;
2522;SDS011;1272;53.332;9.860;2022-11-20T00:48:48;10.30;;;9.20;;
2522;SDS011;1272;53.332;9.860;2022-11-20T00:51:16;10.47;;;7.93;;
2522;SDS011;1272;53.332;9.860;2022-11-20T00:53:43;11.30;;;9.07;;
2522;SDS011;1272;53.332;9.860;2022-11-20T00:56:11;13.77;;;8.63;;
2522;SDS011;1272;53.332;9.860;2022-11-20T00:58:41;12.67;;;9.40;;
2522;SDS011;1272;53.332;9.860;2022-11-20T01:01:09;18.60;;;9.43;;
2522;SDS011;1272;53.332;9.860;2022-11-20T01:03:37;10.90;;;8.40;;
2522;SDS011;1272;53.332;9.860;2022-11-20T01:06:13;10.27;;;8.90;;
2522;SDS011;1272;53.332;9.860;2022-11-20T01:08:46;8.77;;;7.87;;
2522;SDS011;1272;53.332;9.860;2022-11-20T01:11:16;10.17;;;8.10;;
2522;SDS011;1272;53.332;9.860;2022-11-20T01:13:44;12.43;;;8.00;;
2522;SDS011;1272;53.332;9.860;2022-11-20T01:16:15;10.73;;;8.10;;
2522;SDS011;1272;53.332;9.860;2022-11-20T01:18:46;8.80;;;7.87;;
2522;SDS011;1272;53.332;9.860;2022-11-20T01:21:15;8.80;;;7.50;;
2522;SDS011;1272;53.332;9.860;2022-11-20T01:23:45;8.30;;;7.40;;
2522;SDS011;1272;53.332;9.860;2022-11-20T01:26:14;9.63;;;8.60;;
2522;SDS011;1272;53.332;9.860;2022-11-20T01:28:50;10.07;;;7.50;;
2522;SDS011;1272;53.332;9.860;2022-11-20T01:31:20;8.00;;;7.20;;
2522;SDS011;1272;53.332;9.860;2022-11-20T01:33:49;8.50;;;7.70;;
2522;SDS011;1272;53.332;9.860;2022-11-20T01:36:16;11.97;;;7.23;;
2522;SDS011;1272;53.332;9.860;2022-11-20T01:38:43;8.17;;;7.33;;
2522;SDS011;1272;53.332;9.860;2022-11-20T01:41:10;10.57;;;7.10;;
2522;SDS011;1272;53.332;9.860;2022-11-20T01:43:58;8.70;;;7.70;;
2522;SDS011;1272;53.332;9.860;2022-11-20T01:46:24;7.93;;;7.20;;
2522;SDS011;1272;53.332;9.860;2022-11-20T01:49:01;7.50;;;6.57;;
2522;SDS011;1272;53.332;9.860;2022-11-20T01:51:33;8.23;;;7.03;;
2522;SDS011;1272;53.332;9.860;2022-11-20T01:54:07;9.70;;;7.10;;
2522;SDS011;1272;53.332;9.860;2022-11-20T01:56:38;12.40;;;7.47;;
2522;SDS011;1272;53.332;9.860;2022-11-20T01:59:07;7.60;;;6.80;;
2522;SDS011;1272;53.332;9.860;2022-11-20T02:01:34;9.63;;;7.20;;
2522;SDS011;1272;53.332;9.860;2022-11-20T02:04:00;7.50;;;6.70;;
2522;SDS011;1272;53.332;9.860;2022-11-20T02:06:35;8.57;;;7.77;;
2522;SDS011;1272;53.332;9.860;2022-11-20T02:09:05;7.23;;;6.50;;
2522;SDS011;1272;53.332;9.860;2022-11-20T02:11:33;9.70;;;7.17;;
2522;SDS011;1272;53.332;9.860;2022-11-20T02:14:02;11.43;;;7.80;;
2522;SDS011;1272;53.332;9.860;2022-11-20T02:18:55;8.87;;;7.90;;
2522;SDS011;1272;53.332;9.860;2022-11-20T02:21:38;7.70;;;5.93;;
2522;SDS011;1272;53.332;9.860;2022-11-20T02:24:19;8.27;;;7.03;;
2522;SDS011;1272;53.332;9.860;2022-11-20T02:26:54;6.67;;;6.07;;
2522;SDS011;1272;53.332;9.860;2022-11-20T02:29:27;7.83;;;7.07;;
2522;SDS011;1272;53.332;9.860;2022-11-20T02:32:00;7.90;;;7.10;;
2522;SDS011;1272;53.332;9.860;2022-11-20T02:34:27;8.67;;;6.97;;
2522;SDS011;1272;53.332;9.860;2022-11-20T02:36:53;7.50;;;6.80;;
2522;SDS011;1272;53.332;9.860;2022-11-20T02:39:21;8.33;;;7.33;;
2522;SDS011;1272;53.332;9.860;2022-11-20T02:41:51;8.17;;;7.33;;
2522;SDS011;1272;53.332;9.860;2022-11-20T02:44:19;6.80;;;6.23;;
2522;SDS011;1272;53.332;9.860;2022-11-20T02:46:45;9.83;;;7.43;;
2522;SDS011;1272;53.332;9.860;2022-11-20T02:49:11;9.53;;;8.53;;
2522;SDS011;1272;53.332;9.860;2022-11-20T02:51:37;9.20;;;7.47;;
2522;SDS011;1272;53.332;9.860;2022-11-20T02:54:02;9.80;;;7.43;;
2522;SDS011;1272;53.332;9.860;2022-11-20T02:56:29;8.70;;;7.50;;
2522;SDS011;1272;53.332;9.860;2022-11-20T02:58:56;7.33;;;6.63;;
2522;SDS011;1272;53.332;9.860;2022-11-20T03:01:22;8.73;;;7.87;;
2522;SDS011;1272;53.332;9.860;2022-11-20T03:03:48;7.33;;;6.60;;
2522;SDS011;1272;53.332;9.860;2022-11-20T03:06:14;6.70;;;5.97;;
2522;SDS011;1272;53.332;9.860;2022-11-20T03:08:41;7.93;;;6.60;;
2522;SDS011;1272;53.332;9.860;2022-11-20T03:11:07;7.13;;;5.90;;
2522;SDS011;1272;53.332;9.860;2022-11-20T03:13:33;6.97;;;6.37;;
2522;SDS011;1272;53.332;9.860;2022-11-20T03:16:11;10.23;;;7.07;;
2522;SDS011;1272;53.332;9.860;2022-11-20T03:18:39;7.47;;;6.10;;
2522;SDS011;1272;53.332;9.860;2022-11-20T03:21:06;8.10;;;6.07;;
2522;SDS011;1272;53.332;9.860;2022-11-20T03:23:33;8.43;;;6.70;;
2522;SDS011;1272;53.332;9.860;2022-11-20T03:26:15;8.93;;;6.77;;
2522;SDS011;1272;53.332;9.860;2022-11-20T03:28:50;6.23;;;5.70;;
2522;SDS011;1272;53.332;9.860;2022-11-20T03:31:19;10.23;;;6.40;;
2522;SDS011;1272;53.332;9.860;2022-11-20T03:33:47;9.10;;;6.87;;
2522;SDS011;1272;53.332;9.860;2022-11-20T03:36:14;5.83;;;5.33;;
2522;SDS011;1272;53.332;9.860;2022-11-20T03:38:41;6.77;;;5.80;;
2522;SDS011;1272;53.332;9.860;2022-11-20T03:41:07;7.70;;;6.70;;
2522;SDS011;1272;53.332;9.860;2022-11-20T03:43:35;7.00;;;6.30;;
2522;SDS011;1272;53.332;9.860;2022-11-20T03:46:02;8.83;;;6.43;;
2522;SDS011;1272;53.332;9.860;2022-11-20T03:48:28;6.77;;;6.10;;
2522;SDS011;1272;53.332;9.860;2022-11-20T03:53:54;8.43;;;7.30;;
2522;SDS011;1272;53.332;9.860;2022-11-20T03:56:25;7.20;;;6.50;;
2522;SDS011;1272;53.332;9.860;2022-11-20T03:58:53;7.70;;;7.00;;
2522;SDS011;1272;53.332;9.860;2022-11-20T04:01:20;7.43;;;6.73;;
2522;SDS011;1272;53.332;9.860;2022-11-20T04:03:48;7.13;;;6.30;;
2522;SDS011;1272;53.332;9.860;2022-11-20T04:08:44;11.00;;;7.53;;
2522;SDS011;1272;53.332;9.860;2022-11-20T04:11:11;7.83;;;7.07;;
2522;SDS011;1272;53.332;9.860;2022-11-20T04:13:41;8.50;;;7.70;;
2522;SDS011;1272;53.332;9.860;2022-11-20T04:16:10;7.83;;;6.60;;
2522;SDS011;1272;53.332;9.860;2022-11-20T04:18:36;8.63;;;7.50;;
2522;SDS011;1272;53.332;9.860;2022-11-20T04:21:02;6.93;;;6.27;;
2522;SDS011;1272;53.332;9.860;2022-11-20T04:23:28;11.07;;;8.93;;
2522;SDS011;1272;53.332;9.860;2022-11-20T04:25:54;8.80;;;7.50;;
2522;SDS011;1272;53.332;9.860;2022-11-20T04:28:19;11.40;;;9.30;;
2522;SDS011;1272;53.332;9.860;2022-11-20T04:30:45;9.50;;;8.00;;
2522;SDS011;1272;53.332;9.860;2022-11-20T04:33:11;11.07;;;7.80;;
2522;SDS011;1272;53.332;9.860;2022-11-20T04:35:37;9.60;;;7.90;;
2522;SDS011;1272;53.332;9.860;2022-11-20T04:38:03;8.07;;;7.27;;
2522;SDS011;1272;53.332;9.860;2022-11-20T04:40:29;14.47;;;8.57;;
2522;SDS011;1272;53.332;9.860;2022-11-20T04:42:55;16.30;;;9.13;;
2522;SDS011;1272;53.332;9.860;2022-11-20T04:45:22;12.97;;;8.40;;
2522;SDS011;1272;53.332;9.860;2022-11-20T04:47:48;14.43;;;9.63;;
2522;SDS011;1272;53.332;9.860;2022-11-20T04:50:14;13.80;;;8.90;;
2522;SDS011;1272;53.332;9.860;2022-11-20T04:52:39;12.23;;;8.97;;
2522;SDS011;1272;53.332;9.860;2022-11-20T04:55:05;10.40;;;8.43;;
2522;SDS011;1272;53.332;9.860;2022-11-20T04:57:32;12.63;;;10.13;;
2522;SDS011;1272;53.332;9.860;2022-11-20T04:59:57;12.53;;;9.83;;
2522;SDS011;1272;53.332;9.860;2022-11-20T05:02:23;10.57;;;9.30;;
2522;SDS011;1272;53.332;9.860;2022-11-20T05:04:49;11.67;;;9.63;;
2522;SDS011;1272;53.332;9.860;2022-11-20T05:07:15;11.00;;;9.47;;
2522;SDS011;1272;53.332;9.860;2022-11-20T05:09:41;12.00;;;9.63;;
2522;SDS011;1272;53.332;9.860;2022-11-20T05:12:07;14.33;;;10.20;;
2522;SDS011;1272;53.332;9.860;2022-11-20T05:14:33;13.30;;;10.27;;
2522;SDS011;1272;53.332;9.860;2022-11-20T05:16:59;10.27;;;8.70;;
2522;SDS011;1272;53.332;9.860;2022-11-20T05:19:25;12.70;;;9.87;;
2522;SDS011;1272;53.332;9.860;2022-11-20T05:21:50;12.03;;;10.17;;
2522;SDS011;1272;53.332;9.860;2022-11-20T05:24:16;9.80;;;8.80;;
2522;SDS011;1272;53.332;9.860;2022-11-20T05:26:42;10.77;;;9.43;;
2522;SDS011;1272;53.332;9.860;2022-11-20T05:29:09;11.53;;;10.30;;
2522;SDS011;1272;53.332;9.860;2022-11-20T05:31:36;14.40;;;11.07;;
2522;SDS011;1272;53.332;9.860;2022-11-20T05:34:04;16.43;;;12.17;;
2522;SDS011;1272;53.332;9.860;2022-11-20T05:36:31;16.30;;;10.20;;
2522;SDS011;1272;53.332;9.860;2022-11-20T05:38:56;15.47;;;10.53;;
2522;SDS011;1272;53.332;9.860;2022-11-20T05:41:22;15.97;;;11.83;;
2522;SDS011;1272;53.332;9.860;2022-11-20T05:43:48;17.70;;;12.50;;
2522;SDS011;1272;53.332;9.860;2022-11-20T05:46:15;16.57;;;12.30;;
2522;SDS011;1272;53.332;9.860;2022-11-20T05:48:43;14.17;;;11.90;;
2522;SDS011;1272;53.332;9.860;2022-11-20T05:51:10;16.50;;;11.40;;
2522;SDS011;1272;53.332;9.860;2022-11-20T05:53:37;13.30;;;10.80;;
2522;SDS011;1272;53.332;9.860;2022-11-20T05:56:04;17.50;;;12.07;;
2522;SDS011;1272;53.332;9.860;2022-11-20T05:58:37;16.80;;;12.50;;
2522;SDS011;1272;53.332;9.860;2022-11-20T06:03:34;20.07;;;15.03;;
2522;SDS011;1272;53.332;9.860;2022-11-20T06:06:00;18.33;;;12.50;;
2522;SDS011;1272;53.332;9.860;2022-11-20T06:08:27;16.87;;;12.63;;
2522;SDS011;1272;53.332;9.860;2022-11-20T06:10:53;20.23;;;14.03;;
2522;SDS011;1272;53.332;9.860;2022-11-20T06:13:19;16.50;;;13.03;;
2522;SDS011;1272;53.332;9.860;2022-11-20T06:15:48;22.97;;;14.53;;
2522;SDS011;1272;53.332;9.860;2022-11-20T06:18:19;21.23;;;14.30;;
2522;SDS011;1272;53.332;9.860;2022-11-20T06:20:45;20.80;;;15.10;;
2522;SDS011;1272;53.332;9.860;2022-11-20T06:23:12;21.53;;;14.50;;
2522;SDS011;1272;53.332;9.860;2022-11-20T06:25:38;23.30;;;14.03;;
2522;SDS011;1272;53.332;9.860;2022-11-20T06:28:05;19.10;;;14.47;;
2522;SDS011;1272;53.332;9.860;2022-11-20T06:30:31;19.50;;;15.00;;
2522;SDS011;1272;53.332;9.860;2022-11-20T06:32:57;22.43;;;15.00;;
2522;SDS011;1272;53.332;9.860;2022-11-20T06:35:25;24.00;;;15.57;;
2522;SDS011;1272;53.332;9.860;2022-11-20T06:37:51;19.97;;;13.80;;
2522;SDS011;1272;53.332;9.860;2022-11-20T06:40:17;23.40;;;15.43;;
2522;SDS011;1272;53.332;9.860;2022-11-20T06:42:42;18.40;;;13.93;;
2522;SDS011;1272;53.332;9.860;2022-11-20T06:45:08;21.60;;;15.00;;
2522;SDS011;1272;53.332;9.860;2022-11-20T06:47:34;19.77;;;13.80;;
2522;SDS011;1272;53.332;9.860;2022-11-20T06:50:00;20.27;;;14.50;;
2522;SDS011;1272;53.332;9.860;2022-11-20T06:52:26;24.13;;;14.33;;
2522;SDS011;1272;53.332;9.860;2022-11-20T06:54:52;20.33;;;14.80;;
2522;SDS011;1272;53.332;9.860;2022-11-20T06:57:17;24.53;;;15.77;;
2522;SDS011;1272;53.332;9.860;2022-11-20T06:59:43;22.80;;;16.00;;
2522;SDS011;1272;53.332;9.860;2022-11-20T07:02:10;22.83;;;16.40;;
2522;SDS011;1272;53.332;9.860;2022-11-20T07:04:36;17.53;;;14.60;;
2522;SDS011;1272;53.332;9.860;2022-11-20T07:07:02;18.33;;;14.47;;
2522;SDS011;1272;53.332;9.860;2022-11-20T07:09:29;21.73;;;15.53;;
2522;SDS011;1272;53.332;9.860;2022-11-20T07:11:54;19.53;;;14.70;;
2522;SDS011;1272;53.332;9.860;2022-11-20T07:14:20;20.83;;;15.60;;
2522;SDS011;1272;53.332;9.860;2022-11-20T07:16:46;24.57;;;17.80;;
2522;SDS011;1272;53.332;9.860;2022-11-20T07:19:12;23.67;;;15.40;;
2522;SDS011;1272;53.332;9.860;2022-11-20T07:21:38;22.00;;;16.20;;
2522;SDS011;1272;53.332;9.860;2022-11-20T07:24:03;25.10;;;16.90;;
2522;SDS011;1272;53.332;9.860;2022-11-20T07:26:29;24.37;;;15.43;;
2522;SDS011;1272;53.332;9.860;2022-11-20T07:28:55;23.83;;;17.30;;
2522;SDS011;1272;53.332;9.860;2022-11-20T07:31:24;20.13;;;14.90;;
2522;SDS011;1272;53.332;9.860;2022-11-20T07:33:49;27.57;;;17.83;;
2522;SDS011;1272;53.332;9.860;2022-11-20T07:36:15;24.70;;;14.70;;
2522;SDS011;1272;53.332;9.860;2022-11-20T07:38:41;20.33;;;15.30;;
2522;SDS011;1272;53.332;9.860;2022-11-20T07:41:06;25.73;;;16.83;;
2522;SDS011;1272;53.332;9.860;2022-11-20T07:43:32;20.37;;;14.70;;
2522;SDS011;1272;53.332;9.860;2022-11-20T07:45:58;19.57;;;15.77;;
2522;SDS011;1272;53.332;9.860;2022-11-20T07:48:24;20.80;;;15.37;;
2522;SDS011;1272;53.332;9.860;2022-11-20T07:50:56;23.90;;;16.87;;
2522;SDS011;1272;53.332;9.860;2022-11-20T07:53:22;17.77;;;15.20;;
2522;SDS011;1272;53.332;9.860;2022-11-20T07:55:48;19.00;;;15.17;;
2522;SDS011;1272;53.332;9.860;2022-11-20T07:58:15;25.63;;;16.30;;
2522;SDS011;1272;53.332;9.860;2022-11-20T08:00:40;20.40;;;15.87;;
2522;SDS011;1272;53.332;9.860;2022-11-20T08:03:07;19.93;;;15.00;;
2522;SDS011;1272;53.332;9.860;2022-11-20T08:05:32;25.27;;;15.80;;
2522;SDS011;1272;53.332;9.860;2022-11-20T08:07:58;18.10;;;14.37;;
2522;SDS011;1272;53.332;9.860;2022-11-20T08:10:24;18.07;;;15.07;;
2522;SDS011;1272;53.332;9.860;2022-11-20T08:12:51;20.50;;;13.80;;
2522;SDS011;1272;53.332;9.860;2022-11-20T08:15:36;21.13;;;14.90;;
2522;SDS011;1272;53.332;9.860;2022-11-20T08:18:04;22.17;;;15.80;;
2522;SDS011;1272;53.332;9.860;2022-11-20T08:20:32;22.30;;;15.77;;
2522;SDS011;1272;53.332;9.860;2022-11-20T08:23:03;22.23;;;16.43;;
2522;SDS011;1272;53.332;9.860;2022-11-20T08:25:36;24.20;;;16.53;;
2522;SDS011;1272;53.332;9.860;2022-11-20T08:28:03;22.90;;;16.77;;
2522;SDS011;1272;53.332;9.860;2022-11-20T08:30:30;24.50;;;17.87;;
2522;SDS011;1272;53.332;9.860;2022-11-20T08:33:00;34.10;;;21.17;;
2522;SDS011;1272;53.332;9.860;2022-11-20T08:35:34;20.40;;;17.13;;
2522;SDS011;1272;53.332;9.860;2022-11-20T08:38:03;22.00;;;17.50;;
2522;SDS011;1272;53.332;9.860;2022-11-20T08:40:32;22.30;;;16.10;;
2522;SDS011;1272;53.332;9.860;2022-11-20T08:42:58;22.70;;;16.33;;
2522;SDS011;1272;53.332;9.860;2022-11-20T08:45:23;21.20;;;14.90;;
2522;SDS011;1272;53.332;9.860;2022-11-20T08:47:49;21.40;;;15.67;;
2522;SDS011;1272;53.332;9.860;2022-11-20T08:50:15;19.47;;;14.73;;
2522;SDS011;1272;53.332;9.860;2022-11-20T08:52:42;21.83;;;15.10;;
2522;SDS011;1272;53.332;9.860;2022-11-20T08:55:08;24.17;;;16.07;;
2522;SDS011;1272;53.332;9.860;2022-11-20T08:57:34;19.77;;;14.53;;
2522;SDS011;1272;53.332;9.860;2022-11-20T09:00:02;20.40;;;16.27;;
2522;SDS011;1272;53.332;9.860;2022-11-20T09:02:29;21.30;;;16.70;;
2522;SDS011;1272;53.332;9.860;2022-11-20T09:04:54;17.90;;;14.87;;
2522;SDS011;1272;53.332;9.860;2022-11-20T09:07:20;18.70;;;14.60;;
2522;SDS011;1272;53.332;9.860;2022-11-20T09:09:46;20.03;;;13.67;;
2522;SDS011;1272;53.332;9.860;2022-11-20T09:12:12;17.10;;;14.70;;
2522;SDS011;1272;53.332;9.860;2022-11-20T09:14:38;18.13;;;14.37;;
2522;SDS011;1272;53.332;9.860;2022-11-20T09:17:04;22.13;;;13.20;;
2522;SDS011;1272;53.332;9.860;2022-11-20T09:19:30;17.70;;;14.10;;
2522;SDS011;1272;53.332;9.860;2022-11-20T09:21:55;17.63;;;13.10;;
2522;SDS011;1272;53.332;9.860;2022-11-20T09:24:21;17.67;;;13.10;;
2522;SDS011;1272;53.332;9.860;2022-11-20T09:26:47;17.50;;;12.57;;
2522;SDS011;1272;53.332;9.860;2022-11-20T09:29:12;17.90;;;13.47;;
2522;SDS011;1272;53.332;9.860;2022-11-20T09:31:39;15.97;;;11.83;;
2522;SDS011;1272;53.332;9.860;2022-11-20T09:34:04;15.30;;;12.10;;
2522;SDS011;1272;53.332;9.860;2022-11-20T09:36:30;13.13;;;11.40;;
2522;SDS011;1272;53.332;9.860;2022-11-20T09:38:56;16.33;;;13.00;;
2522;SDS011;1272;53.332;9.860;2022-11-20T09:46:53;15.10;;;11.53;;
2522;SDS011;1272;53.332;9.860;2022-11-20T09:49:34;12.27;;;9.43;;
2522;SDS011;1272;53.332;9.860;2022-11-20T09:54:45;13.03;;;11.20;;
2522;SDS011;1272;53.332;9.860;2022-11-20T09:59:42;14.97;;;11.40;;
2522;SDS011;1272;53.332;9.860;2022-11-20T10:05:09;16.30;;;10.13;;
2522;SDS011;1272;53.332;9.860;2022-11-20T10:10:45;14.17;;;10.17;;
2522;SDS011;1272;53.332;9.860;2022-11-20T10:21:21;11.67;;;10.47;;
2522;SDS011;1272;53.332;9.860;2022-11-20T10:29:32;10.27;;;9.07;;
2522;SDS011;1272;53.332;9.860;2022-11-20T10:32:01;11.10;;;9.40;;
2522;SDS011;1272;53.332;9.860;2022-11-20T10:34:52;12.37;;;9.33;;
2522;SDS011;1272;53.332;9.860;2022-11-20T10:37:23;10.40;;;9.23;;
2522;SDS011;1272;53.332;9.860;2022-11-20T10:42:26;12.63;;;10.27;;
2522;SDS011;1272;53.332;9.860;2022-11-20T10:45:10;10.57;;;9.47;;
2522;SDS011;1272;53.332;9.860;2022-11-20T10:50:49;10.73;;;9.10;;
2522;SDS011;1272;53.332;9.860;2022-11-20T10:56:19;8.37;;;7.50;;
2522;SDS011;1272;53.332;9.860;2022-11-20T10:59:14;7.60;;;6.90;;
2522;SDS011;1272;53.332;9.860;2022-11-20T11:02:00;7.80;;;7.10;;
2522;SDS011;1272;53.332;9.860;2022-11-20T11:04:37;9.67;;;8.33;;
2522;SDS011;1272;53.332;9.860;2022-11-20T11:09:44;8.13;;;7.10;;
2522;SDS011;1272;53.332;9.860;2022-11-20T11:12:17;7.77;;;6.90;;
2522;SDS011;1272;53.332;9.860;2022-11-20T11:20:05;9.40;;;7.50;;
2522;SDS011;1272;53.332;9.860;2022-11-20T11:22:48;7.20;;;6.50;;
2522;SDS011;1272;53.332;9.860;2022-11-20T11:25:24;6.00;;;5.50;;
2522;SDS011;1272;53.332;9.860;2022-11-20T11:27:52;6.30;;;5.40;;
2522;SDS011;1272;53.332;9.860;2022-11-20T11:30:21;4.80;;;4.50;;
2522;SDS011;1272;53.332;9.860;2022-11-20T11:32:48;5.00;;;4.70;;
2522;SDS011;1272;53.332;9.860;2022-11-20T11:35:19;4.40;;;4.10;;
2522;SDS011;1272;53.332;9.860;2022-11-20T11:38:06;6.50;;;5.90;;
2522;SDS011;1272;53.332;9.860;2022-11-20T11:40:37;4.83;;;4.53;;
2522;SDS011;1272;53.332;9.860;2022-11-20T11:43:06;4.93;;;4.53;;
2522;SDS011;1272;53.332;9.860;2022-11-20T11:46:05;4.77;;;4.47;;
2522;SDS011;1272;53.332;9.860;2022-11-20T11:49:01;5.20;;;4.80;;
2522;SDS011;1272;53.332;9.860;2022-11-20T11:54:35;5.23;;;4.73;;
2522;SDS011;1272;53.332;9.860;2022-11-20T11:57:50;4.20;;;3.90;;
2522;SDS011;1272;53.332;9.860;2022-11-20T12:00:27;4.47;;;4.17;;
2522;SDS011;1272;53.332;9.860;2022-11-20T12:02:55;6.10;;;5.50;;
2522;SDS011;1272;53.332;9.860;2022-11-20T12:05:36;5.67;;;5.17;;
2522;SDS011;1272;53.332;9.860;2022-11-20T12:11:03;5.97;;;5.47;;
2522;SDS011;1272;53.332;9.860;2022-11-20T12:16:30;5.87;;;5.10;;
2522;SDS011;1272;53.332;9.860;2022-11-20T12:19:00;4.83;;;4.43;;
2522;SDS011;1272;53.332;9.860;2022-11-20T12:21:31;4.67;;;4.37;;
2522;SDS011;1272;53.332;9.860;2022-11-20T12:24:18;4.90;;;4.43;;
2522;SDS011;1272;53.332;9.860;2022-11-20T12:27:16;4.67;;;4.27;;
2522;SDS011;1272;53.332;9.860;2022-11-20T12:30:08;4.53;;;4.07;;
2522;SDS011;1272;53.332;9.860;2022-11-20T12:50:53;4.33;;;4.03;;
2522;SDS011;1272;53.332;9.860;2022-11-20T12:56:30;4.50;;;4.13;;
2522;SDS011;1272;53.332;9.860;2022-11-20T13:07:31;6.10;;;5.50;;
2522;SDS011;1272;53.332;9.860;2022-11-20T13:09:57;5.00;;;4.60;;
2522;SDS011;1272;53.332;9.860;2022-11-20T13:18:04;3.90;;;3.60;;
2522;SDS011;1272;53.332;9.860;2022-11-20T13:20:33;4.60;;;4.40;;
2522;SDS011;1272;53.332;9.860;2022-11-20T13:23:00;4.20;;;3.90;;
2522;SDS011;1272;53.332;9.860;2022-11-20T13:27:58;4.80;;;4.50;;
2522;SDS011;1272;53.332;9.860;2022-11-20T13:30:27;5.10;;;4.67;;
2522;SDS011;1272;53.332;9.860;2022-11-20T13:33:00;4.77;;;4.37;;
2522;SDS011;1272;53.332;9.860;2022-11-20T13:35:32;4.33;;;4.03;;
2522;SDS011;1272;53.332;9.860;2022-11-20T13:38:04;5.27;;;4.17;;
2522;SDS011;1272;53.332;9.860;2022-11-20T13:40:32;4.10;;;3.73;;
2522;SDS011;1272;53.332;9.860;2022-11-20T13:43:11;4.10;;;3.80;;
2522;SDS011;1272;53.332;9.860;2022-11-20T13:46:03;5.47;;;5.03;;
2522;SDS011;1272;53.332;9.860;2022-11-20T13:48:34;4.50;;;4.13;;
2522;SDS011;1272;53.332;9.860;2022-11-20T14:02:22;5.13;;;4.63;;
2522;SDS011;1272;53.332;9.860;2022-11-20T14:04:51;5.80;;;5.40;;
2522;SDS011;1272;53.332;9.860;2022-11-20T14:07:20;4.80;;;4.43;;
2522;SDS011;1272;53.332;9.860;2022-11-20T14:09:50;5.17;;;4.67;;
2522;SDS011;1272;53.332;9.860;2022-11-20T14:12:18;4.70;;;4.40;;
2522;SDS011;1272;53.332;9.860;2022-11-20T14:14:51;3.87;;;3.60;;
2522;SDS011;1272;53.332;9.860;2022-11-20T14:17:40;4.50;;;4.10;;
2522;SDS011;1272;53.332;9.860;2022-11-20T14:20:06;4.10;;;3.90;;
2522;SDS011;1272;53.332;9.860;2022-11-20T14:22:38;4.50;;;4.20;;
2522;SDS011;1272;53.332;9.860;2022-11-20T14:27:47;4.53;;;4.23;;
2522;SDS011;1272;53.332;9.860;2022-11-20T14:30:29;4.43;;;4.17;;
2522;SDS011;1272;53.332;9.860;2022-11-20T14:33:12;3.83;;;3.63;;
2522;SDS011;1272;53.332;9.860;2022-11-20T14:35:49;3.97;;;3.73;;
2522;SDS011;1272;53.332;9.860;2022-11-20T14:38:28;4.33;;;4.03;;
2522;SDS011;1272;53.332;9.860;2022-11-20T14:41:06;4.50;;;4.10;;
2522;SDS011;1272;53.332;9.860;2022-11-20T14:43:33;6.60;;;5.97;;
2522;SDS011;1272;53.332;9.860;2022-11-20T14:46:09;6.67;;;6.07;;
2522;SDS011;1272;53.332;9.860;2022-11-20T14:48:39;7.07;;;6.23;;
2522;SDS011;1272;53.332;9.860;2022-11-20T14:51:11;5.83;;;5.30;;
2522;SDS011;1272;53.332;9.860;2022-11-20T14:54:07;8.33;;;6.60;;
2522;SDS011;1272;53.332;9.860;2022-11-20T14:56:36;8.20;;;7.37;;
2522;SDS011;1272;53.332;9.860;2022-11-20T14:59:02;7.73;;;6.93;;
2522;SDS011;1272;53.332;9.860;2022-11-20T15:01:29;9.43;;;8.10;;
2522;SDS011;1272;53.332;9.860;2022-11-20T15:06:31;11.63;;;7.60;;
2522;SDS011;1272;53.332;9.860;2022-11-20T15:08:57;8.53;;;7.13;;
2522;SDS011;1272;53.332;9.860;2022-11-20T15:11:33;12.07;;;7.00;;
2522;SDS011;1272;53.332;9.860;2022-11-20T15:14:02;7.10;;;5.57;;
2522;SDS011;1272;53.332;9.860;2022-11-20T15:16:32;6.07;;;5.17;;
2522;SDS011;1272;53.332;9.860;2022-11-20T15:18:58;9.37;;;5.40;;
2522;SDS011;1272;53.332;9.860;2022-11-20T15:21:27;5.47;;;4.97;;
2522;SDS011;1272;53.332;9.860;2022-11-20T15:23:52;12.73;;;6.30;;
2522;SDS011;1272;53.332;9.860;2022-11-20T15:26:25;6.00;;;4.77;;
2522;SDS011;1272;53.332;9.860;2022-11-20T15:28:52;4.80;;;4.47;;
2522;SDS011;1272;53.332;9.860;2022-11-20T15:31:20;5.17;;;4.77;;
2522;SDS011;1272;53.332;9.860;2022-11-20T15:33:47;3.97;;;3.60;;
2522;SDS011;1272;53.332;9.860;2022-11-20T15:36:13;4.90;;;4.50;;
2522;SDS011;1272;53.332;9.860;2022-11-20T15:38:39;5.30;;;4.90;;
2522;SDS011;1272;53.332;9.860;2022-11-20T15:41:05;5.67;;;5.17;;
2522;SDS011;1272;53.332;9.860;2022-11-20T15:43:32;5.43;;;4.93;;
2522;SDS011;1272;53.332;9.860;2022-11-20T15:46:02;5.33;;;4.80;;
2522;SDS011;1272;53.332;9.860;2022-11-20T15:48:51;4.57;;;4.27;;
2522;SDS011;1272;53.332;9.860;2022-11-20T15:51:21;5.23;;;4.83;;
2522;SDS011;1272;53.332;9.860;2022-11-20T15:53:50;5.70;;;5.20;;
2522;SDS011;1272;53.332;9.860;2022-11-20T15:56:16;5.20;;;4.80;;
2522;SDS011;1272;53.332;9.860;2022-11-20T15:58:42;8.80;;;6.50;;
2522;SDS011;1272;53.332;9.860;2022-11-20T16:01:11;14.33;;;9.60;;
2522;SDS011;1272;53.332;9.860;2022-11-20T16:03:38;11.70;;;10.50;;
2522;SDS011;1272;53.332;9.860;2022-11-20T16:06:04;9.60;;;8.63;;
2522;SDS011;1272;53.332;9.860;2022-11-20T16:08:30;8.63;;;7.70;;
2522;SDS011;1272;53.332;9.860;2022-11-20T16:10:56;9.37;;;8.53;;
2522;SDS011;1272;53.332;9.860;2022-11-20T16:13:22;8.63;;;7.83;;
2522;SDS011;1272;53.332;9.860;2022-11-20T16:18:49;13.67;;;10.87;;
2522;SDS011;1272;53.332;9.860;2022-11-20T16:21:15;12.97;;;10.00;;
2522;SDS011;1272;53.332;9.860;2022-11-20T16:23:41;13.80;;;10.63;;
2522;SDS011;1272;53.332;9.860;2022-11-20T16:26:14;14.70;;;11.30;;
2522;SDS011;1272;53.332;9.860;2022-11-20T16:28:41;17.63;;;14.23;;
2522;SDS011;1272;53.332;9.860;2022-11-20T16:31:11;16.17;;;12.70;;
2522;SDS011;1272;53.332;9.860;2022-11-20T16:33:39;15.87;;;12.77;;
2522;SDS011;1272;53.332;9.860;2022-11-20T16:36:08;23.13;;;14.80;;
2522;SDS011;1272;53.332;9.860;2022-11-20T16:38:38;18.70;;;14.53;;
2522;SDS011;1272;53.332;9.860;2022-11-20T16:41:04;17.40;;;14.50;;
2522;SDS011;1272;53.332;9.860;2022-11-20T16:43:30;17.83;;;14.43;;
2522;SDS011;1272;53.332;9.860;2022-11-20T16:45:56;14.07;;;12.37;;
2522;SDS011;1272;53.332;9.860;2022-11-20T16:48:22;16.63;;;13.87;;
2522;SDS011;1272;53.332;9.860;2022-11-20T16:50:52;21.40;;;16.50;;
2522;SDS011;1272;53.332;9.860;2022-11-20T16:53:21;16.87;;;14.43;;
2522;SDS011;1272;53.332;9.860;2022-11-20T16:55:49;24.27;;;15.07;;
2522;SDS011;1272;53.332;9.860;2022-11-20T16:58:15;18.20;;;14.20;;
2522;SDS011;1272;53.332;9.860;2022-11-20T17:00:41;14.50;;;12.13;;
2522;SDS011;1272;53.332;9.860;2022-11-20T17:03:07;16.80;;;11.93;;
2522;SDS011;1272;53.332;9.860;2022-11-20T17:05:33;15.43;;;13.80;;
2522;SDS011;1272;53.332;9.860;2022-11-20T17:07:59;17.10;;;13.57;;
2522;SDS011;1272;53.332;9.860;2022-11-20T17:10:25;23.90;;;14.83;;
2522;SDS011;1272;53.332;9.860;2022-11-20T17:12:51;21.37;;;15.73;;
2522;SDS011;1272;53.332;9.860;2022-11-20T17:15:17;17.83;;;14.30;;
2522;SDS011;1272;53.332;9.860;2022-11-20T17:17:43;18.50;;;13.27;;